createdAt,value
2024-04-21T00:01:21.876Z,59.74
2024-04-21T00:03:48.978Z,59.78
2024-04-21T00:06:16.278Z,59.72
2024-04-21T00:08:42.871Z,59.74
2024-04-21T00:11:09.543Z,59.60
2024-04-21T00:13:36.183Z,59.70
2024-04-21T00:16:02.995Z,59.92
2024-04-21T00:18:29.601Z,59.97
2024-04-21T00:20:56.233Z,59.91
2024-04-21T00:23:22.816Z,60.02
2024-04-21T00:25:59.979Z,59.68
2024-04-21T00:28:26.667Z,59.41
2024-04-21T00:30:54.393Z,59.64
2024-04-21T00:33:21.077Z,59.74
2024-04-21T00:35:47.804Z,59.99
2024-04-21T00:38:16.085Z,59.81
2024-04-21T00:40:42.646Z,60.05
2024-04-21T00:43:10.646Z,59.58
2024-04-21T00:45:42.791Z,59.85
2024-04-21T00:48:09.889Z,59.27
2024-04-21T00:50:39.505Z,59.84
2024-04-21T00:53:08.558Z,59.53
2024-04-21T00:55:36.478Z,59.56
2024-04-21T00:58:04.042Z,59.58
2024-04-21T01:00:31.345Z,59.83
2024-04-21T01:02:57.890Z,59.63
2024-04-21T01:05:24.580Z,59.30
2024-04-21T01:07:51.238Z,59.49
2024-04-21T01:10:17.939Z,59.69
2024-04-21T01:12:44.770Z,59.79
2024-04-21T01:15:11.371Z,59.49
2024-04-21T01:17:38.718Z,59.38
2024-04-21T01:20:05.741Z,59.52
2024-04-21T01:22:32.287Z,59.54
2024-04-21T01:24:58.833Z,59.40
2024-04-21T01:27:25.413Z,59.48
2024-04-21T01:29:51.968Z,59.46
2024-04-21T01:32:19.626Z,59.30
2024-04-21T01:34:46.288Z,59.77
2024-04-21T01:37:13.171Z,59.51
2024-04-21T01:39:40.479Z,59.33
2024-04-21T01:42:07.117Z,59.48
2024-04-21T01:44:36.733Z,59.16
2024-04-21T01:47:03.535Z,59.47
2024-04-21T01:49:30.400Z,59.60
2024-04-21T01:51:57.122Z,59.23
2024-04-21T01:54:23.927Z,59.47
2024-04-21T01:56:50.529Z,59.08
2024-04-21T01:59:17.068Z,59.57
2024-04-21T02:01:43.670Z,59.43
2024-04-21T02:04:10.321Z,59.12
2024-04-21T02:06:36.987Z,59.48
2024-04-21T02:09:03.547Z,59.28
2024-04-21T02:11:30.110Z,59.45
2024-04-21T02:13:56.701Z,59.15
2024-04-21T02:16:23.280Z,59.28
2024-04-21T02:18:49.991Z,59.18
2024-04-21T02:21:16.543Z,59.36
2024-04-21T02:23:43.080Z,59.37
2024-04-21T02:26:09.670Z,59.24
2024-04-21T02:28:36.182Z,59.01
2024-04-21T02:31:04.931Z,59.39
2024-04-21T02:33:31.579Z,59.62
2024-04-21T02:35:58.084Z,59.40
2024-04-21T02:38:24.659Z,59.34
2024-04-21T02:40:51.212Z,59.25
2024-04-21T02:43:17.971Z,59.25
2024-04-21T02:45:44.549Z,59.06
2024-04-21T02:48:11.110Z,59.15
2024-04-21T02:50:38.233Z,59.41
2024-04-21T02:53:04.779Z,59.19
2024-04-21T02:55:31.313Z,58.99
2024-04-21T02:57:57.926Z,59.22
2024-04-21T03:00:24.463Z,59.26
2024-04-21T03:02:51.038Z,59.50
2024-04-21T03:05:17.751Z,59.21
2024-04-21T03:07:44.338Z,59.24
2024-04-21T03:10:11.049Z,59.51
2024-04-21T03:12:37.640Z,59.11
2024-04-21T03:15:04.830Z,59.06
2024-04-21T03:17:31.464Z,59.42
2024-04-21T03:19:58.126Z,59.13
2024-04-21T03:22:24.733Z,59.15
2024-04-21T03:24:51.318Z,59.23
2024-04-21T03:27:17.849Z,59.27
2024-04-21T03:29:44.378Z,59.18
2024-04-21T03:32:11.128Z,59.11
2024-04-21T03:34:37.670Z,59.19
2024-04-21T03:37:04.610Z,59.12
2024-04-21T03:39:31.127Z,59.15
2024-04-21T03:41:57.848Z,59.29
2024-04-21T03:44:24.465Z,58.93
2024-04-21T03:46:51.232Z,59.28
2024-04-21T03:49:17.944Z,59.04
2024-04-21T03:51:44.594Z,59.49
2024-04-21T03:54:11.134Z,58.72
2024-04-21T03:56:37.819Z,59.12
2024-04-21T03:59:04.516Z,59.07
2024-04-21T04:01:31.196Z,59.11
2024-04-21T04:03:57.887Z,59.21
2024-04-21T04:06:25.088Z,59.14
2024-04-21T04:08:51.642Z,59.21
2024-04-21T04:11:18.227Z,59.12
2024-04-21T04:13:44.794Z,59.06
2024-04-21T04:16:11.342Z,59.23
2024-04-21T04:18:37.867Z,58.94
2024-04-21T04:21:04.650Z,58.90
2024-04-21T04:23:31.236Z,58.84
2024-04-21T04:25:57.790Z,58.99
2024-04-21T04:28:24.544Z,58.71
2024-04-21T04:30:51.166Z,58.73
2024-04-21T04:33:17.867Z,58.97
2024-04-21T04:35:45.609Z,58.88
2024-04-21T04:38:12.128Z,59.11
2024-04-21T04:40:38.646Z,59.04
2024-04-21T04:43:05.204Z,59.37
2024-04-21T04:45:32.430Z,58.98
2024-04-21T04:47:59.057Z,58.84
2024-04-21T04:50:25.649Z,59.07
2024-04-21T04:52:57.037Z,58.97
2024-04-21T04:55:24.302Z,59.24
2024-04-21T04:57:50.946Z,58.88
2024-04-21T05:00:17.546Z,58.83
2024-04-21T05:02:44.195Z,59.04
2024-04-21T05:05:12.030Z,58.75
2024-04-21T05:07:38.594Z,59.09
2024-04-21T05:10:05.562Z,59.00
2024-04-21T05:12:32.134Z,59.07
2024-04-21T05:14:58.688Z,59.22
2024-04-21T05:17:25.306Z,58.86
2024-04-21T05:19:51.854Z,58.84
2024-04-21T05:22:18.416Z,58.78
2024-04-21T05:24:45.055Z,59.10
2024-04-21T05:27:11.651Z,58.96
2024-04-21T05:29:38.174Z,58.74
2024-04-21T05:32:04.984Z,59.12
2024-04-21T05:34:31.581Z,58.61
2024-04-21T05:36:58.226Z,58.85
2024-04-21T05:39:26.380Z,59.04
2024-04-21T05:41:53.514Z,58.83
2024-04-21T05:44:20.248Z,58.97
2024-04-21T05:46:46.848Z,58.64
2024-04-21T05:49:13.459Z,59.15
2024-04-21T05:51:40.044Z,58.83
2024-04-21T05:54:06.644Z,58.82
2024-04-21T05:56:33.236Z,58.85
2024-04-21T05:58:59.823Z,58.93
2024-04-21T06:01:26.441Z,58.75
2024-04-21T06:03:53.157Z,58.78
2024-04-21T06:06:22.996Z,58.84
2024-04-21T06:08:50.858Z,59.01
2024-04-21T06:11:17.527Z,58.94
2024-04-21T06:13:44.138Z,59.03
2024-04-21T06:16:10.933Z,58.74
2024-04-21T06:18:37.750Z,58.61
2024-04-21T06:21:04.582Z,59.04
2024-04-21T06:23:31.323Z,58.93
2024-04-21T06:25:57.921Z,59.01
2024-04-21T06:28:24.572Z,58.87
2024-04-21T06:30:51.297Z,58.95
2024-04-21T06:33:17.867Z,59.10
2024-04-21T06:35:45.955Z,59.01
2024-04-21T06:38:12.654Z,59.07
2024-04-21T06:40:39.329Z,58.59
2024-04-21T06:43:05.961Z,58.93
2024-04-21T06:45:32.612Z,58.64
2024-04-21T06:47:59.245Z,58.96
2024-04-21T06:50:25.908Z,58.89
2024-04-21T06:52:52.478Z,58.94
2024-04-21T06:55:21.518Z,58.66
2024-04-21T06:57:48.681Z,58.80
2024-04-21T07:00:15.584Z,58.81
2024-04-21T07:02:42.189Z,58.86
2024-04-21T07:05:08.936Z,58.65
2024-04-21T07:07:35.524Z,58.48
2024-04-21T07:10:02.338Z,58.84
2024-04-21T07:12:29.012Z,58.69
2024-04-21T07:14:55.613Z,58.92
2024-04-21T07:17:22.246Z,58.87
2024-04-21T07:19:49.088Z,58.85
2024-04-21T07:22:16.071Z,58.85
2024-04-21T07:24:42.867Z,58.88
2024-04-21T07:27:09.443Z,58.83
2024-04-21T07:29:38.178Z,59.00
2024-04-21T07:32:05.999Z,58.69
2024-04-21T07:34:32.695Z,58.65
2024-04-21T07:36:59.394Z,58.86
2024-04-21T07:39:29.063Z,58.70
2024-04-21T07:41:55.670Z,58.66
2024-04-21T07:44:23.059Z,58.61
2024-04-21T07:46:49.658Z,58.65
2024-04-21T07:49:16.272Z,58.75
2024-04-21T07:51:43.051Z,58.79
2024-04-21T07:54:10.028Z,58.79
2024-04-21T07:56:36.625Z,59.02
2024-04-21T07:59:03.296Z,58.88
2024-04-21T08:01:29.931Z,58.86
2024-04-21T08:03:56.685Z,58.68
2024-04-21T08:06:23.803Z,58.76
2024-04-21T08:08:57.309Z,58.67
2024-04-21T08:11:27.820Z,59.00
2024-04-21T08:13:54.596Z,58.43
2024-04-21T08:16:21.546Z,58.45
2024-04-21T08:18:48.202Z,58.62
2024-04-21T08:21:14.902Z,58.64
2024-04-21T08:23:42.042Z,58.73
2024-04-21T08:27:29.283Z,58.98
2024-04-21T08:29:55.844Z,58.73
2024-04-21T08:32:22.428Z,58.75
2024-04-21T08:34:50.521Z,58.60
2024-04-21T08:37:18.964Z,58.88
2024-04-21T08:39:49.488Z,58.77
2024-04-21T08:42:17.320Z,58.08
2024-04-21T08:44:44.156Z,58.53
2024-04-21T08:47:13.669Z,58.24
2024-04-21T08:49:42.159Z,58.04
2024-04-21T08:52:10.541Z,57.83
2024-04-21T08:54:37.201Z,57.48
2024-04-21T08:57:05.685Z,57.71
2024-04-21T08:59:34.365Z,57.38
2024-04-21T09:02:02.007Z,57.38
2024-04-21T09:04:29.596Z,57.30
2024-04-21T09:06:56.438Z,56.98
2024-04-21T09:09:23.105Z,56.91
2024-04-21T09:11:51.007Z,56.79
2024-04-21T09:14:17.582Z,56.84
2024-04-21T09:16:44.102Z,56.83
2024-04-21T09:19:10.663Z,56.45
2024-04-21T09:21:37.212Z,56.48
2024-04-21T09:24:04.001Z,56.35
2024-04-21T09:26:30.561Z,56.01
2024-04-21T09:28:57.240Z,56.68
2024-04-21T09:31:23.918Z,56.17
2024-04-21T09:33:51.436Z,56.28
2024-04-21T09:36:18.230Z,56.44
2024-04-21T09:38:51.678Z,56.31
2024-04-21T09:41:18.634Z,56.43
2024-04-21T09:43:45.180Z,56.63
2024-04-21T09:46:17.830Z,56.45
2024-04-21T09:48:47.144Z,56.49
2024-04-21T09:51:13.739Z,56.27
2024-04-21T09:53:40.554Z,56.93
2024-04-21T09:56:10.842Z,56.92
2024-04-21T09:58:40.813Z,56.50
2024-04-21T10:01:12.293Z,56.59
2024-04-21T10:03:42.240Z,56.75
2024-04-21T10:06:09.943Z,56.90
2024-04-21T10:08:38.951Z,56.76
2024-04-21T10:11:05.859Z,56.89
2024-04-21T10:13:32.940Z,56.71
2024-04-21T10:16:00.846Z,56.90
2024-04-21T10:18:27.526Z,56.91
2024-04-21T10:20:54.471Z,56.88
2024-04-21T10:23:21.210Z,56.70
2024-04-21T10:25:48.449Z,56.76
2024-04-21T10:28:26.315Z,56.89
2024-04-21T10:31:04.119Z,56.91
2024-04-21T10:33:30.729Z,56.70
2024-04-21T10:35:58.313Z,56.86
2024-04-21T10:38:25.256Z,56.84
2024-04-21T10:40:51.948Z,56.91
2024-04-21T10:43:22.509Z,56.92
2024-04-21T10:45:49.086Z,56.62
2024-04-21T10:48:15.793Z,56.83
2024-04-21T10:50:44.027Z,56.94
2024-04-21T10:53:10.946Z,56.81
2024-04-21T10:55:37.647Z,56.96
2024-04-21T10:58:08.089Z,57.24
2024-04-21T11:00:39.107Z,57.05
2024-04-21T11:03:07.265Z,56.83
2024-04-21T11:05:43.067Z,56.81
2024-04-21T11:08:09.713Z,56.88
2024-04-21T11:10:37.559Z,57.25
2024-04-21T11:13:07.721Z,57.06
2024-04-21T11:15:41.418Z,57.25
2024-04-21T11:18:08.125Z,57.27
2024-04-21T11:20:34.899Z,57.36
2024-04-21T11:23:01.670Z,57.17
2024-04-21T11:25:28.791Z,57.29
2024-04-21T11:27:56.207Z,57.54
2024-04-21T11:30:25.429Z,57.35
2024-04-21T11:32:52.452Z,57.54
2024-04-21T11:35:22.464Z,57.41
2024-04-21T11:37:52.184Z,57.44
2024-04-21T11:40:20.526Z,57.25
2024-04-21T11:42:47.430Z,57.74
2024-04-21T11:45:25.767Z,57.71
2024-04-21T11:47:55.606Z,57.71
2024-04-21T11:50:23.423Z,57.54
2024-04-21T11:52:50.028Z,57.49
2024-04-21T11:55:16.629Z,57.41
2024-04-21T11:57:43.547Z,57.51
2024-04-21T12:00:10.483Z,57.51
2024-04-21T12:02:37.337Z,57.46
2024-04-21T12:05:04.401Z,57.68
2024-04-21T12:07:31.034Z,57.65
2024-04-21T12:09:57.641Z,57.68
2024-04-21T12:12:24.335Z,57.98
2024-04-21T12:14:50.873Z,57.81
2024-04-21T12:17:20.084Z,57.46
2024-04-21T12:19:46.700Z,57.62
2024-04-21T12:22:13.655Z,57.64
2024-04-21T12:24:43.362Z,57.48
2024-04-21T12:27:10.337Z,57.65
2024-04-21T12:29:36.974Z,57.66
2024-04-21T12:32:03.733Z,57.56
2024-04-21T12:34:30.348Z,57.73
2024-04-21T12:36:56.874Z,57.54
2024-04-21T12:39:23.987Z,57.92
2024-04-21T12:41:50.642Z,57.63
2024-04-21T12:44:17.216Z,57.50
2024-04-21T12:46:44.728Z,57.74
2024-04-21T12:49:11.601Z,57.61
2024-04-21T12:51:39.242Z,57.54
2024-04-21T12:54:05.853Z,57.97
2024-04-21T12:56:32.600Z,57.87
2024-04-21T12:58:59.113Z,58.05
2024-04-21T13:01:25.842Z,58.06
2024-04-21T13:03:52.463Z,58.08
2024-04-21T13:06:20.157Z,57.98
2024-04-21T13:08:46.697Z,57.81
2024-04-21T13:11:13.316Z,58.06
2024-04-21T13:13:39.904Z,57.75
2024-04-21T13:16:06.989Z,57.97
2024-04-21T13:18:33.709Z,57.89
2024-04-21T13:21:00.410Z,58.06
2024-04-21T13:23:26.962Z,58.05
2024-04-21T13:25:53.506Z,58.12
2024-04-21T13:28:20.052Z,58.23
2024-04-21T13:30:46.670Z,58.24
2024-04-21T13:33:13.398Z,58.36
2024-04-21T13:35:40.074Z,57.87
2024-04-21T13:38:06.600Z,58.08
2024-04-21T13:40:33.275Z,58.13
2024-04-21T13:42:59.939Z,58.52
2024-04-21T13:45:26.482Z,58.35
2024-04-21T13:47:53.082Z,58.14
2024-04-21T13:50:19.624Z,58.56
2024-04-21T13:52:46.248Z,58.35
2024-04-21T13:55:12.870Z,58.31
2024-04-21T13:57:39.417Z,58.68
2024-04-21T14:00:06.640Z,58.29
2024-04-21T14:02:33.617Z,58.29
2024-04-21T14:05:00.196Z,58.32
2024-04-21T14:07:26.769Z,58.43
2024-04-21T14:09:53.410Z,58.63
2024-04-21T14:12:20.214Z,58.60
2024-04-21T14:14:47.346Z,58.61
2024-04-21T14:17:14.048Z,58.54
2024-04-21T14:19:40.696Z,58.63
2024-04-21T14:22:07.849Z,58.72
2024-04-21T14:25:05.878Z,58.54
2024-04-21T14:27:32.447Z,58.79
2024-04-21T14:29:59.304Z,58.85
2024-04-21T14:32:26.635Z,58.57
2024-04-21T14:34:53.426Z,58.80
2024-04-21T14:37:20.057Z,59.03
2024-04-21T14:39:46.623Z,58.94
2024-04-21T14:42:15.873Z,58.77
2024-04-21T14:44:43.699Z,58.95
2024-04-21T14:47:10.385Z,58.92
2024-04-21T14:49:36.950Z,58.82
2024-04-21T14:52:03.762Z,58.79
2024-04-21T14:54:30.278Z,59.02
2024-04-21T14:56:56.908Z,58.87
2024-04-21T14:59:23.655Z,58.83
2024-04-21T15:01:50.307Z,58.89
2024-04-21T15:04:19.068Z,59.23
2024-04-21T15:06:45.946Z,59.12
2024-04-21T15:09:12.491Z,59.13
2024-04-21T15:11:39.292Z,59.07
2024-04-21T15:14:05.812Z,58.83
2024-04-21T15:16:36.282Z,59.23
2024-04-21T15:19:04.923Z,58.98
2024-04-21T15:21:31.611Z,58.89
2024-04-21T15:23:58.117Z,59.13
2024-04-21T15:26:24.663Z,59.37
2024-04-21T15:28:51.201Z,58.97
2024-04-21T15:31:17.875Z,59.21
2024-04-21T15:33:44.640Z,59.04
2024-04-21T15:36:11.828Z,58.90
2024-04-21T15:38:38.330Z,59.35
2024-04-21T15:41:04.913Z,59.47
2024-04-21T15:43:31.487Z,59.14
2024-04-21T15:45:58.068Z,59.13
2024-04-21T15:48:26.855Z,59.29
2024-04-21T15:50:54.622Z,59.34
2024-04-21T15:53:21.231Z,59.09
2024-04-21T15:55:47.871Z,59.42
2024-04-21T15:58:14.653Z,59.28
2024-04-21T16:00:44.417Z,59.16
2024-04-21T16:03:10.977Z,59.31
2024-04-21T16:05:38.900Z,59.45
2024-04-21T16:08:09.515Z,59.17
2024-04-21T16:10:36.358Z,59.23
2024-04-21T16:13:03.030Z,59.34
2024-04-21T16:15:29.917Z,59.29
2024-04-21T16:17:56.741Z,59.46
2024-04-21T16:20:23.477Z,59.52
2024-04-21T16:22:50.116Z,59.20
2024-04-21T16:25:16.845Z,59.72
2024-04-21T16:27:43.522Z,59.36
2024-04-21T16:30:10.417Z,59.39
2024-04-21T16:32:39.024Z,59.41
2024-04-21T16:35:06.367Z,59.45
2024-04-21T16:37:33.357Z,59.27
2024-04-21T16:40:00.351Z,59.32
2024-04-21T16:42:28.653Z,59.43
2024-04-21T16:44:56.338Z,59.52
2024-04-21T16:47:23.593Z,59.54
2024-04-21T16:49:50.372Z,59.69
2024-04-21T16:52:17.170Z,59.19
2024-04-21T16:54:44.014Z,59.34
2024-04-21T16:57:23.104Z,59.23
2024-04-21T16:59:50.394Z,59.61
2024-04-21T17:02:20.077Z,59.23
2024-04-21T17:04:49.023Z,59.49
2024-04-21T17:07:20.014Z,59.86
2024-04-21T17:09:49.406Z,59.67
2024-04-21T17:12:22.114Z,59.59
2024-04-21T17:14:51.664Z,59.67
2024-04-21T17:17:20.863Z,59.67
2024-04-21T17:19:47.850Z,59.58
2024-04-21T17:22:14.421Z,59.75
2024-04-21T17:24:40.983Z,59.65
2024-04-21T17:27:10.252Z,59.49
2024-04-21T17:29:36.827Z,59.49
2024-04-21T17:32:03.617Z,59.74
2024-04-21T17:34:30.236Z,59.65
2024-04-21T17:36:56.818Z,59.38
2024-04-21T17:39:23.350Z,59.42
2024-04-21T17:41:49.881Z,59.81
2024-04-21T17:44:16.522Z,59.78
2024-04-21T17:46:53.574Z,59.65
2024-04-21T17:49:20.168Z,59.78
2024-04-21T17:51:46.875Z,59.88
2024-04-21T17:54:17.564Z,59.65
2024-04-21T17:56:44.089Z,59.53
2024-04-21T17:59:10.627Z,59.79
2024-04-21T18:01:39.747Z,59.61
2024-04-21T18:04:06.571Z,59.69
2024-04-21T18:06:33.231Z,59.91
2024-04-21T18:08:59.771Z,59.88
2024-04-21T18:11:27.170Z,59.73
2024-04-21T18:13:53.787Z,59.79
2024-04-21T18:16:20.329Z,59.82
2024-04-21T18:18:47.047Z,59.71
2024-04-21T18:21:14.333Z,59.62
2024-04-21T18:23:40.863Z,59.91
2024-04-21T18:26:07.463Z,59.92
2024-04-21T18:28:34.145Z,59.83
2024-04-21T18:31:00.899Z,59.81
2024-04-21T18:33:27.536Z,59.76
2024-04-21T18:35:56.866Z,60.16
2024-04-21T18:38:26.405Z,59.86
2024-04-21T18:40:53.813Z,59.96
2024-04-21T18:43:20.981Z,59.77
2024-04-21T18:45:47.628Z,59.82
2024-04-21T18:48:14.257Z,59.83
2024-04-21T18:50:46.224Z,59.88
2024-04-21T18:53:13.724Z,59.78
2024-04-21T18:55:42.399Z,59.85
2024-04-21T18:58:09.831Z,60.29
2024-04-21T19:00:37.748Z,59.77
2024-04-21T19:03:07.527Z,59.92
2024-04-21T19:05:42.839Z,59.74
2024-04-21T19:08:10.002Z,59.74
2024-04-21T19:10:41.871Z,59.90
2024-04-21T19:13:09.129Z,59.83
2024-04-21T19:15:36.111Z,60.11
2024-04-21T19:18:03.080Z,59.95
2024-04-21T19:20:30.423Z,59.83
2024-04-21T19:22:57.217Z,59.97
2024-04-21T19:25:26.361Z,59.84
2024-04-21T19:27:52.959Z,60.16
2024-04-21T19:30:19.508Z,60.23
2024-04-21T19:32:46.449Z,59.78
2024-04-21T19:35:12.993Z,59.81
2024-04-21T19:37:40.903Z,60.19
2024-04-21T19:40:08.563Z,59.73
2024-04-21T19:42:35.169Z,59.94
2024-04-21T19:45:01.722Z,59.75
2024-04-21T19:47:28.316Z,59.97
2024-04-21T19:49:54.927Z,59.79
2024-04-21T19:52:21.784Z,60.06
2024-04-21T19:54:48.335Z,59.93
2024-04-21T19:57:14.932Z,59.64
2024-04-21T19:59:42.872Z,59.76
2024-04-21T20:02:09.524Z,59.87
2024-04-21T20:04:36.187Z,59.68
2024-04-21T20:07:02.915Z,59.97
2024-04-21T20:09:29.672Z,59.88
2024-04-21T20:11:56.216Z,60.09
2024-04-21T20:14:24.088Z,59.84
2024-04-21T20:17:10.580Z,59.91
2024-04-21T20:19:37.454Z,59.92
2024-04-21T20:22:04.229Z,60.12
2024-04-21T20:24:32.606Z,59.93
2024-04-21T20:26:59.146Z,59.89
2024-04-21T20:29:26.660Z,59.62
2024-04-21T20:31:54.199Z,59.64
2024-04-21T20:34:20.861Z,59.87
2024-04-21T20:36:47.441Z,59.78
2024-04-21T20:39:13.975Z,59.75
2024-04-21T20:41:42.103Z,59.80
2024-04-21T20:44:08.652Z,59.72
2024-04-21T20:46:35.353Z,59.68
2024-04-21T20:49:02.224Z,59.70
2024-04-21T20:51:28.799Z,60.00
2024-04-21T20:53:55.477Z,59.77
2024-04-21T20:56:22.025Z,59.80
2024-04-21T20:58:52.614Z,59.78
2024-04-21T21:01:20.484Z,59.60
2024-04-21T21:03:47.481Z,59.83
2024-04-21T21:06:14.129Z,59.96
2024-04-21T21:08:40.738Z,59.75
2024-04-21T21:11:07.352Z,59.71
2024-04-21T21:13:34.092Z,59.99
2024-04-21T21:16:10.517Z,59.82
2024-04-21T21:18:37.283Z,59.70
2024-04-21T21:21:04.098Z,59.86
2024-04-21T21:23:30.778Z,59.36
2024-04-21T21:25:58.669Z,59.62
2024-04-21T21:28:25.318Z,59.47
2024-04-21T21:30:52.978Z,59.85
2024-04-21T21:33:20.135Z,59.79
2024-04-21T21:35:56.973Z,59.65
2024-04-21T21:38:25.423Z,59.61
2024-04-21T21:40:52.917Z,59.78
2024-04-21T21:43:19.736Z,59.72
2024-04-21T21:45:46.914Z,59.62
2024-04-21T21:48:13.585Z,59.65
2024-04-21T21:50:40.311Z,59.77
2024-04-21T21:53:06.851Z,59.86
2024-04-21T21:55:33.460Z,59.47
2024-04-21T21:57:59.999Z,59.46
2024-04-21T22:00:27.871Z,59.74
2024-04-21T22:02:54.784Z,59.69
2024-04-21T22:05:21.341Z,59.83
2024-04-21T22:07:47.873Z,59.45
2024-04-21T22:10:14.601Z,59.86
2024-04-21T22:12:41.127Z,59.31
2024-04-21T22:15:07.896Z,59.54
2024-04-21T22:17:34.709Z,59.56
2024-04-21T22:20:01.338Z,59.63
2024-04-21T22:22:27.954Z,59.47
2024-04-21T22:24:54.517Z,59.30
2024-04-21T22:27:21.081Z,59.33
2024-04-21T22:29:47.617Z,59.63
2024-04-21T22:32:14.202Z,59.51
2024-04-21T22:34:40.840Z,59.78
2024-04-21T22:37:07.892Z,59.63
2024-04-21T22:39:34.438Z,59.57
2024-04-21T22:42:00.973Z,59.52
2024-04-21T22:44:28.377Z,59.41
2024-04-21T22:46:55.043Z,59.47
2024-04-21T22:49:21.608Z,59.51
2024-04-21T22:51:49.465Z,59.55
2024-04-21T22:54:15.995Z,59.43
2024-04-21T22:56:42.592Z,59.56
2024-04-21T22:59:09.137Z,59.46
2024-04-21T23:01:35.690Z,59.54
2024-04-21T23:04:02.300Z,59.82
2024-04-21T23:06:28.898Z,59.58
2024-04-21T23:08:56.412Z,59.42
2024-04-21T23:11:22.976Z,59.19
2024-04-21T23:13:49.476Z,59.41
2024-04-21T23:16:17.127Z,59.43
2024-04-21T23:18:43.748Z,59.10
2024-04-21T23:21:10.350Z,59.29
2024-04-21T23:23:36.852Z,59.26
2024-04-21T23:26:03.834Z,59.59
2024-04-21T23:28:30.445Z,59.71
2024-04-21T23:30:57.021Z,59.27
2024-04-21T23:33:23.559Z,59.48
2024-04-21T23:35:50.101Z,59.31
2024-04-21T23:38:16.698Z,59.56
2024-04-21T23:40:44.531Z,59.31
2024-04-21T23:43:11.120Z,59.40
2024-04-21T23:45:39.668Z,59.49
2024-04-21T23:48:06.618Z,59.16
2024-04-21T23:50:33.425Z,59.27
2024-04-21T23:52:59.955Z,59.62
2024-04-21T23:55:26.515Z,59.20
2024-04-21T23:57:53.048Z,59.20
